createdAt,value
2023-05-14T00:00:48.533Z,102092.41
2023-05-14T00:06:37.171Z,102090.81
2023-05-14T00:12:24.547Z,102094.59
2023-05-14T00:18:14.626Z,102077.03
2023-05-14T00:24:01.757Z,102098.78
2023-05-14T00:29:52.516Z,102091.66
2023-05-14T00:35:41.428Z,102082.38
2023-05-14T00:41:29.539Z,102074.78
2023-05-14T00:47:16.732Z,102063.38
2023-05-14T00:53:10.651Z,102061.44
2023-05-14T00:58:57.460Z,102061.72
2023-05-14T01:04:45.624Z,102058.38
2023-05-14T01:10:54.823Z,102039.00
2023-05-14T01:16:46.187Z,102044.47
2023-05-14T01:22:33.576Z,102040.75
2023-05-14T01:28:28.280Z,102032.63
2023-05-14T01:34:21.891Z,102038.88
2023-05-14T01:40:10.877Z,102031.34
2023-05-14T01:46:04.099Z,102018.53
2023-05-14T01:51:54.126Z,102015.81
2023-05-14T01:57:43.909Z,102004.53
2023-05-14T02:03:31.837Z,102014.88
2023-05-14T02:09:18.772Z,102010.00
2023-05-14T02:15:06.357Z,102012.38
2023-05-14T02:20:53.253Z,102015.19
2023-05-14T02:26:42.189Z,102016.66
2023-05-14T02:32:36.014Z,102012.72
2023-05-14T02:38:27.538Z,102000.81
2023-05-14T02:44:16.523Z,102003.78
2023-05-14T02:50:06.276Z,102008.75
2023-05-14T02:55:56.298Z,101995.91
2023-05-14T03:01:46.449Z,101985.56
2023-05-14T03:07:33.909Z,101976.16
2023-05-14T03:13:20.951Z,101974.72
2023-05-14T03:19:10.009Z,101976.78
2023-05-14T03:24:59.129Z,101985.03
2023-05-14T03:30:46.189Z,101978.34
2023-05-14T03:36:34.253Z,101967.47
2023-05-14T03:42:22.889Z,101951.19
2023-05-14T03:48:13.041Z,101947.75
2023-05-14T03:54:00.159Z,101945.50
2023-05-14T03:59:47.830Z,101951.00
2023-05-14T04:05:35.988Z,101966.69
2023-05-14T04:11:26.765Z,101972.78
2023-05-14T04:17:16.107Z,101955.66
2023-05-14T04:23:02.967Z,101959.16
2023-05-14T04:28:52.217Z,101960.09
2023-05-14T04:34:42.634Z,101960.19
2023-05-14T04:40:31.517Z,101954.50
2023-05-14T04:46:18.403Z,101942.03
2023-05-14T04:52:08.409Z,101939.44
2023-05-14T04:57:55.732Z,101949.56
2023-05-14T05:03:42.534Z,101938.38
2023-05-14T05:09:30.369Z,101942.09
2023-05-14T05:15:20.080Z,101952.97
2023-05-14T05:21:10.553Z,101953.88
2023-05-14T05:27:01.140Z,101936.78
2023-05-14T05:32:50.710Z,101953.09
2023-05-14T05:38:37.809Z,101957.91
2023-05-14T05:44:24.972Z,101945.69
2023-05-14T05:50:14.405Z,101956.75
2023-05-14T05:56:04.338Z,101958.03
2023-05-14T06:01:51.802Z,101969.28
2023-05-14T06:07:39.558Z,101953.25
2023-05-14T06:13:28.335Z,101936.59
2023-05-14T06:19:18.399Z,101940.94
2023-05-14T06:25:05.902Z,101931.84
2023-05-14T06:30:54.758Z,101915.97
2023-05-14T06:36:41.745Z,101919.44
2023-05-14T06:42:28.594Z,101914.56
2023-05-14T06:48:16.071Z,101911.44
2023-05-14T06:54:03.109Z,101910.63
2023-05-14T06:59:50.768Z,101905.56
2023-05-14T07:05:40.872Z,101901.25
2023-05-14T07:11:28.469Z,101897.53
2023-05-14T07:17:17.559Z,101886.94
2023-05-14T07:23:10.267Z,101882.13
2023-05-14T07:29:03.717Z,101869.06
2023-05-14T07:34:51.703Z,101872.97
2023-05-14T07:40:39.789Z,101867.16
2023-05-14T07:46:31.545Z,101868.22
2023-05-14T07:52:25.928Z,101867.25
2023-05-14T07:58:55.311Z,101859.28
2023-05-14T08:04:42.759Z,101860.47
2023-05-14T08:10:50.233Z,101852.03
2023-05-14T08:16:37.396Z,101861.59
2023-05-14T08:22:24.453Z,101868.09
2023-05-14T08:28:11.542Z,101839.94
2023-05-14T08:33:59.773Z,101847.13
2023-05-14T08:39:46.938Z,101843.88
2023-05-14T08:45:36.809Z,101851.47
2023-05-14T08:51:26.940Z,101829.53
2023-05-14T08:57:15.390Z,101820.56
2023-05-14T09:03:38.100Z,101830.19
2023-05-14T09:09:51.557Z,101833.56
2023-05-14T09:15:44.561Z,101833.75
2023-05-14T09:21:34.376Z,101820.56
2023-05-14T09:27:27.838Z,101830.03
2023-05-14T09:33:33.462Z,101821.00
2023-05-14T09:39:27.576Z,101812.00
2023-05-14T09:45:16.080Z,101822.25
2023-05-14T09:51:04.599Z,101811.28
2023-05-14T09:56:56.883Z,101796.31
2023-05-14T10:02:51.484Z,101789.28
2023-05-14T10:08:42.696Z,101789.34
2023-05-14T10:14:39.979Z,101786.69
2023-05-14T10:20:29.728Z,101784.06
2023-05-14T10:26:18.198Z,101793.31
2023-05-14T10:32:08.077Z,101782.09
2023-05-14T10:37:55.673Z,101767.31
2023-05-14T10:43:44.876Z,101761.28
2023-05-14T10:49:43.054Z,101751.47
2023-05-14T10:55:31.876Z,101756.91
2023-05-14T11:01:20.140Z,101743.88
2023-05-14T11:07:10.530Z,101754.38
2023-05-14T11:12:58.818Z,101732.78
2023-05-14T11:18:46.021Z,101718.25
2023-05-14T11:24:35.087Z,101711.94
2023-05-14T11:30:23.712Z,101721.28
2023-05-14T11:36:15.636Z,101715.06
2023-05-14T11:42:03.930Z,101718.00
2023-05-14T11:47:53.328Z,101705.66
2023-05-14T11:53:45.683Z,101694.31
2023-05-14T11:59:32.928Z,101689.84
2023-05-14T12:05:23.779Z,101684.75
2023-05-14T12:11:10.879Z,101693.13
2023-05-14T12:17:04.519Z,101677.56
2023-05-14T12:23:02.570Z,101675.41
2023-05-14T12:29:01.151Z,101659.44
2023-05-14T12:34:51.219Z,101650.13
2023-05-14T12:40:50.209Z,101657.25
2023-05-14T12:46:37.530Z,101638.41
2023-05-14T12:52:39.254Z,101642.00
2023-05-14T12:58:28.778Z,101636.38
2023-05-14T13:04:19.097Z,101610.13
2023-05-14T13:10:07.175Z,101615.84
2023-05-14T13:15:54.062Z,101593.97
2023-05-14T13:21:41.099Z,101598.88
2023-05-14T13:27:39.692Z,101609.94
2023-05-14T13:33:29.608Z,101597.72
2023-05-14T13:39:31.766Z,101576.38
2023-05-14T13:45:21.282Z,101571.44
2023-05-14T13:51:28.167Z,101564.03
2023-05-14T13:57:24.631Z,101556.31
2023-05-14T14:03:11.885Z,101532.88
2023-05-14T14:09:02.199Z,101553.75
2023-05-14T14:14:50.353Z,101536.56
2023-05-14T14:20:38.846Z,101535.31
2023-05-14T14:26:28.061Z,101517.06
2023-05-14T14:32:17.106Z,101517.44
2023-05-14T14:38:04.023Z,101513.41
2023-05-14T14:43:50.953Z,101489.13
2023-05-14T14:49:42.860Z,101486.69
2023-05-14T14:55:30.500Z,101487.44
2023-05-14T15:01:19.014Z,101491.63
2023-05-14T15:07:06.475Z,101491.47
2023-05-14T15:12:53.414Z,101485.78
2023-05-14T15:18:41.737Z,101470.75
2023-05-14T15:24:28.686Z,101484.53
2023-05-14T15:30:15.999Z,101479.50
2023-05-14T15:36:08.381Z,101452.94
2023-05-14T15:41:56.628Z,101467.78
2023-05-14T15:47:45.236Z,101462.41
2023-05-14T15:53:32.376Z,101453.19
2023-05-14T15:59:20.028Z,101453.59
2023-05-14T16:05:08.463Z,101440.94
2023-05-14T16:10:56.026Z,101435.72
2023-05-14T16:16:43.977Z,101434.91
2023-05-14T16:22:32.867Z,101430.38
2023-05-14T16:28:22.755Z,101423.19
2023-05-14T16:34:10.404Z,101410.72
2023-05-14T16:39:57.709Z,101407.59
2023-05-14T16:45:45.591Z,101411.16
2023-05-14T16:51:49.646Z,101415.53
2023-05-14T16:57:49.923Z,101408.16
2023-05-14T17:03:42.043Z,101411.31
2023-05-14T17:09:31.825Z,101407.56
2023-05-14T17:15:22.022Z,101413.06
2023-05-14T17:21:10.788Z,101429.91
2023-05-14T17:26:57.644Z,101417.19
2023-05-14T17:32:44.602Z,101435.19
2023-05-14T17:38:35.169Z,101444.03
2023-05-14T17:44:22.102Z,101430.34
2023-05-14T17:50:11.021Z,101440.44
2023-05-14T17:55:58.873Z,101438.91
2023-05-14T18:01:46.016Z,101435.38
2023-05-14T18:07:34.121Z,101428.81
2023-05-14T18:13:24.621Z,101418.25
2023-05-14T18:19:11.931Z,101414.84
2023-05-14T18:24:59.092Z,101415.34
2023-05-14T18:30:52.324Z,101412.38
2023-05-14T18:36:45.979Z,101415.63
2023-05-14T18:42:33.756Z,101422.75
2023-05-14T18:48:30.626Z,101437.69
2023-05-14T18:54:18.041Z,101445.28
2023-05-14T19:00:10.916Z,101443.13
2023-05-14T19:05:59.431Z,101437.47
2023-05-14T19:11:48.441Z,101438.09
2023-05-14T19:17:35.602Z,101438.16
2023-05-14T19:23:22.869Z,101443.97
2023-05-14T19:29:14.177Z,101448.75
2023-05-14T19:35:02.280Z,101446.81
2023-05-14T19:40:51.055Z,101449.97
2023-05-14T19:46:45.064Z,101456.00
2023-05-14T19:52:34.419Z,101459.16
2023-05-14T19:58:23.409Z,101444.91
2023-05-14T20:04:10.736Z,101416.19
2023-05-14T20:09:59.718Z,101412.88
2023-05-14T20:15:48.653Z,101401.81
2023-05-14T20:21:35.764Z,101398.00
2023-05-14T20:27:26.057Z,101404.66
2023-05-14T20:33:13.826Z,101408.59
2023-05-14T20:39:03.982Z,101416.44
2023-05-14T20:45:00.208Z,101405.50
2023-05-14T20:50:52.077Z,101399.28
2023-05-14T20:56:45.115Z,101405.16
2023-05-14T21:02:35.438Z,101397.25
2023-05-14T21:08:23.301Z,101393.31
2023-05-14T21:14:10.341Z,101392.81
2023-05-14T21:19:58.538Z,101383.53
2023-05-14T21:25:45.620Z,101382.53
2023-05-14T21:31:32.849Z,101377.03
2023-05-14T21:37:22.001Z,101384.00
2023-05-14T21:43:16.053Z,101391.94
2023-05-14T21:49:05.463Z,101392.38
2023-05-14T21:55:28.861Z,101395.19
2023-05-14T22:01:17.158Z,101393.41
2023-05-14T22:07:04.572Z,101389.47
2023-05-14T22:12:52.942Z,101389.28
2023-05-14T22:18:49.409Z,101383.16
2023-05-14T22:24:42.099Z,101383.00
2023-05-14T22:30:33.415Z,101375.50
2023-05-14T22:36:24.197Z,101385.56
2023-05-14T22:42:11.600Z,101375.66
2023-05-14T22:47:58.959Z,101369.13
2023-05-14T22:53:47.129Z,101375.47
2023-05-14T22:59:39.610Z,101369.09
2023-05-14T23:05:35.253Z,101367.66
2023-05-14T23:11:28.425Z,101377.69
2023-05-14T23:17:19.136Z,101371.53
2023-05-14T23:23:07.960Z,101371.06
2023-05-14T23:29:01.472Z,101378.50
2023-05-14T23:34:48.323Z,101385.53
2023-05-14T23:40:35.346Z,101373.34
2023-05-14T23:46:22.418Z,101372.44
2023-05-14T23:52:09.498Z,101376.91
2023-05-14T23:57:59.597Z,101377.91
